createdAt,value
2022-09-04T00:02:10.188Z,95647.50
2022-09-04T00:04:45.966Z,95654.88
2022-09-04T00:07:23.068Z,95654.94
2022-09-04T00:10:09.884Z,95565.34
2022-09-04T00:12:45.609Z,95660.22
2022-09-04T00:15:19.632Z,95659.41
2022-09-04T00:17:56.470Z,95662.13
2022-09-04T00:20:37.636Z,95481.91
2022-09-04T00:23:15.867Z,95656.88
2022-09-04T00:25:55.371Z,95666.56
2022-09-04T00:28:34.820Z,95668.78
2022-09-04T00:31:13.373Z,95665.00
2022-09-04T00:33:55.633Z,95630.66
2022-09-04T00:36:29.032Z,95475.00
2022-09-04T00:39:02.184Z,95653.34
2022-09-04T00:41:33.842Z,95647.13
2022-09-04T00:44:38.401Z,95650.13
2022-09-04T00:47:23.717Z,95655.44
2022-09-04T00:50:12.222Z,95660.50
2022-09-04T00:53:16.143Z,95659.19
2022-09-04T00:56:06.240Z,95661.69
2022-09-04T00:58:50.392Z,95672.28
2022-09-04T01:01:24.198Z,95669.06
2022-09-04T01:04:24.756Z,95674.47
2022-09-04T01:07:09.328Z,95676.69
2022-09-04T01:10:00.148Z,95640.63
2022-09-04T01:12:37.961Z,95596.19
2022-09-04T01:15:15.904Z,95683.69
2022-09-04T01:17:55.326Z,95656.78
2022-09-04T01:20:49.256Z,95679.72
2022-09-04T01:23:38.081Z,95679.81
2022-09-04T01:26:15.192Z,95685.50
2022-09-04T01:28:56.969Z,95685.53
2022-09-04T01:31:33.350Z,95683.91
2022-09-04T01:34:11.607Z,95664.94
2022-09-04T01:36:50.273Z,95684.03
2022-09-04T01:39:23.594Z,95686.59
2022-09-04T01:42:01.773Z,95689.84
2022-09-04T01:44:32.523Z,95694.16
2022-09-04T01:47:10.011Z,95689.56
2022-09-04T01:49:41.828Z,95693.13
2022-09-04T01:52:36.853Z,95695.03
2022-09-04T01:55:20.751Z,95695.53
2022-09-04T01:58:05.814Z,95680.78
2022-09-04T02:00:43.149Z,95700.38
2022-09-04T02:03:22.133Z,95617.09
2022-09-04T02:06:02.099Z,95702.50
2022-09-04T02:08:58.195Z,95703.25
2022-09-04T02:11:29.505Z,95703.50
2022-09-04T02:14:18.026Z,95708.84
2022-09-04T02:17:04.554Z,95698.47
2022-09-04T02:19:43.077Z,95697.38
2022-09-04T02:22:23.781Z,95701.75
2022-09-04T02:24:59.083Z,95699.06
2022-09-04T02:27:36.488Z,95654.50
2022-09-04T02:30:10.480Z,95704.44
2022-09-04T02:32:47.202Z,95701.19
2022-09-04T02:35:22.791Z,95703.34
2022-09-04T02:38:06.715Z,95700.38
2022-09-04T02:40:43.119Z,95709.97
2022-09-04T02:43:29.868Z,95703.97
2022-09-04T02:46:09.180Z,95708.00
2022-09-04T02:48:53.545Z,95717.41
2022-09-04T02:51:32.516Z,95723.38
2022-09-04T02:54:12.831Z,95673.09
2022-09-04T02:56:49.975Z,95721.72
2022-09-04T02:59:35.352Z,95724.13
2022-09-04T03:02:07.342Z,95717.91
2022-09-04T03:04:50.159Z,95721.94
2022-09-04T03:07:26.969Z,95726.56
2022-09-04T03:10:00.381Z,95733.03
2022-09-04T03:12:36.841Z,95733.56
2022-09-04T03:15:15.145Z,95726.56
2022-09-04T03:17:53.411Z,95728.13
2022-09-04T03:20:25.784Z,95729.75
2022-09-04T03:23:00.731Z,95711.47
2022-09-04T03:25:57.956Z,95734.03
2022-09-04T03:28:40.845Z,95742.72
2022-09-04T03:31:25.721Z,95733.78
2022-09-04T03:34:09.363Z,95740.28
2022-09-04T03:36:43.808Z,95736.94
2022-09-04T03:39:24.698Z,95735.81
2022-09-04T03:42:05.636Z,95732.03
2022-09-04T03:44:52.444Z,95644.78
2022-09-04T03:47:33.440Z,95736.94
2022-09-04T03:50:15.592Z,95720.28
2022-09-04T03:52:56.066Z,95717.31
2022-09-04T03:55:41.310Z,95723.56
2022-09-04T03:58:21.249Z,95744.81
2022-09-04T04:01:01.877Z,95704.56
2022-09-04T04:03:48.752Z,95745.22
2022-09-04T04:06:28.703Z,95754.72
2022-09-04T04:09:19.800Z,95749.56
2022-09-04T04:12:03.436Z,95709.16
2022-09-04T04:15:10.343Z,95764.31
2022-09-04T04:17:56.118Z,95754.88
2022-09-04T04:20:38.500Z,95760.56
2022-09-04T04:23:36.468Z,95759.97
2022-09-04T04:26:11.844Z,95762.97
2022-09-04T04:29:07.208Z,95756.56
2022-09-04T04:32:10.730Z,95768.38
2022-09-04T04:34:54.195Z,95762.97
2022-09-04T04:37:33.029Z,95765.16
2022-09-04T04:40:10.829Z,95779.25
2022-09-04T04:42:51.554Z,95701.25
2022-09-04T04:45:49.428Z,95785.19
2022-09-04T04:49:05.733Z,95794.69
2022-09-04T04:51:57.004Z,95783.56
2022-09-04T04:54:49.388Z,95793.28
2022-09-04T04:57:28.913Z,95792.47
2022-09-04T05:00:08.280Z,95797.63
2022-09-04T05:02:44.239Z,95796.56
2022-09-04T05:05:19.045Z,95809.28
2022-09-04T05:08:07.590Z,95793.59
2022-09-04T05:10:43.030Z,95811.41
2022-09-04T05:13:22.111Z,95812.75
2022-09-04T05:16:08.816Z,95816.00
2022-09-04T05:18:49.277Z,95817.31
2022-09-04T05:21:24.987Z,95818.91
2022-09-04T05:24:00.122Z,95821.34
2022-09-04T05:26:34.733Z,95801.28
2022-09-04T05:29:12.445Z,95830.22
2022-09-04T05:31:50.460Z,95827.75
2022-09-04T05:34:30.674Z,95826.88
2022-09-04T05:37:10.232Z,95845.00
2022-09-04T05:39:51.212Z,95841.41
2022-09-04T05:42:43.187Z,95847.88
2022-09-04T05:45:24.875Z,95850.56
2022-09-04T05:48:06.711Z,95853.75
2022-09-04T05:51:00.972Z,95855.31
2022-09-04T05:53:36.469Z,95867.88
2022-09-04T05:56:37.876Z,95871.00
2022-09-04T05:59:29.583Z,95866.03
2022-09-04T06:02:19.650Z,95865.41
2022-09-04T06:05:06.683Z,95825.56
2022-09-04T06:07:44.247Z,95871.22
2022-09-04T06:10:18.736Z,95880.91
2022-09-04T06:13:26.665Z,95872.75
2022-09-04T06:16:19.163Z,95879.69
2022-09-04T06:19:05.181Z,95883.97
2022-09-04T06:22:05.322Z,95887.97
2022-09-04T06:25:03.372Z,95891.34
2022-09-04T06:27:50.326Z,95898.81
2022-09-04T06:30:20.047Z,95862.44
2022-09-04T06:33:13.831Z,95895.91
2022-09-04T06:36:06.429Z,95898.75
2022-09-04T06:38:48.553Z,95902.72
2022-09-04T06:41:45.199Z,95897.94
2022-09-04T06:44:27.642Z,95893.31
2022-09-04T06:47:07.789Z,95902.38
2022-09-04T06:49:59.383Z,95882.63
2022-09-04T06:52:40.709Z,95907.03
2022-09-04T06:55:17.761Z,95905.06
2022-09-04T06:58:14.873Z,95908.50
2022-09-04T07:00:53.712Z,95865.75
2022-09-04T07:03:47.231Z,95908.84
2022-09-04T07:06:23.776Z,95921.81
2022-09-04T07:09:07.681Z,95920.69
2022-09-04T07:11:46.089Z,95927.25
2022-09-04T07:14:36.503Z,95924.91
2022-09-04T07:17:16.269Z,95916.06
2022-09-04T07:19:59.648Z,95924.66
2022-09-04T07:22:55.088Z,95928.91
2022-09-04T07:25:29.723Z,95934.75
2022-09-04T07:28:35.258Z,95917.44
2022-09-04T07:31:10.147Z,95935.09
2022-09-04T07:33:47.667Z,95929.47
2022-09-04T07:36:20.771Z,95932.00
2022-09-04T07:38:54.820Z,95939.75
2022-09-04T07:41:33.937Z,95919.41
2022-09-04T07:44:09.495Z,95939.97
2022-09-04T07:46:47.119Z,95945.16
2022-09-04T07:49:24.537Z,95928.69
2022-09-04T07:52:01.137Z,95896.66
2022-09-04T07:54:45.108Z,95936.56
2022-09-04T07:57:24.163Z,95947.66
2022-09-04T08:00:15.629Z,95959.34
2022-09-04T08:03:06.209Z,95954.69
2022-09-04T08:05:38.532Z,95951.88
2022-09-04T08:08:57.705Z,95956.50
2022-09-04T08:11:49.844Z,95956.88
2022-09-04T08:14:33.735Z,95962.09
2022-09-04T08:17:25.498Z,95962.50
2022-09-04T08:20:05.190Z,95968.47
2022-09-04T08:22:48.517Z,95963.88
2022-09-04T08:25:32.256Z,95968.81
2022-09-04T08:28:17.744Z,95981.69
2022-09-04T08:30:56.625Z,95967.47
2022-09-04T08:33:56.540Z,95967.38
2022-09-04T08:36:33.289Z,95979.78
2022-09-04T08:39:09.239Z,95971.97
2022-09-04T08:42:18.005Z,95981.03
2022-09-04T08:45:28.489Z,95981.38
2022-09-04T08:48:31.049Z,95983.56
2022-09-04T08:51:33.931Z,95979.47
2022-09-04T08:54:41.886Z,95988.00
2022-09-04T08:57:47.165Z,95995.44
2022-09-04T09:00:18.127Z,95993.88
2022-09-04T09:03:16.216Z,95994.41
2022-09-04T09:06:23.234Z,95994.28
2022-09-04T09:09:27.456Z,95996.38
2022-09-04T09:12:41.975Z,95990.28
2022-09-04T09:15:31.324Z,95996.41
2022-09-04T09:18:03.917Z,95992.00
2022-09-04T09:20:46.368Z,95999.09
2022-09-04T09:23:21.423Z,95979.78
2022-09-04T09:25:56.489Z,95886.03
2022-09-04T09:29:16.419Z,95993.38
2022-09-04T09:32:23.947Z,95993.03
2022-09-04T09:35:32.741Z,95996.09
2022-09-04T09:38:28.170Z,95995.13
2022-09-04T09:41:29.960Z,95964.41
2022-09-04T09:44:27.178Z,96000.59
2022-09-04T09:47:32.757Z,96003.63
2022-09-04T09:50:34.126Z,96005.56
2022-09-04T09:53:52.148Z,95967.78
2022-09-04T09:56:53.557Z,96005.22
2022-09-04T09:59:59.012Z,96008.28
2022-09-04T10:03:04.526Z,95996.72
2022-09-04T10:06:11.228Z,96002.34
2022-09-04T10:09:16.520Z,95998.97
2022-09-04T10:12:14.704Z,96003.97
2022-09-04T10:15:16.759Z,96003.97
2022-09-04T10:18:17.249Z,95997.75
2022-09-04T10:21:20.963Z,95992.16
2022-09-04T10:24:08.392Z,95992.31
2022-09-04T10:27:15.360Z,95999.50
2022-09-04T10:30:02.591Z,95990.63
2022-09-04T10:33:18.896Z,95996.41
2022-09-04T10:36:04.076Z,95993.66
2022-09-04T10:39:03.143Z,95996.09
2022-09-04T10:42:00.395Z,95998.47
2022-09-04T10:44:42.303Z,95999.91
2022-09-04T10:47:20.551Z,95995.88
2022-09-04T10:50:18.556Z,95994.75
2022-09-04T10:53:16.328Z,95994.09
2022-09-04T10:56:09.657Z,95985.53
2022-09-04T10:59:13.280Z,95992.13
2022-09-04T11:02:17.035Z,95990.50
2022-09-04T11:05:08.436Z,95995.31
2022-09-04T11:08:07.092Z,96001.41
2022-09-04T11:10:59.220Z,95994.94
2022-09-04T11:13:51.629Z,95997.13
2022-09-04T11:16:44.852Z,95994.81
2022-09-04T11:19:36.271Z,95990.41
2022-09-04T11:22:46.456Z,95996.03
2022-09-04T11:25:52.344Z,95994.03
2022-09-04T11:28:56.051Z,95986.13
2022-09-04T11:31:40.104Z,95993.75
2022-09-04T11:34:42.969Z,95995.22
2022-09-04T11:37:43.668Z,95988.81
2022-09-04T11:40:42.854Z,95939.50
2022-09-04T11:43:30.752Z,95994.94
2022-09-04T11:46:27.537Z,95996.47
2022-09-04T11:49:20.209Z,95991.75
2022-09-04T11:52:28.369Z,95994.50
2022-09-04T11:55:25.277Z,95993.09
2022-09-04T11:58:28.700Z,95995.41
2022-09-04T12:01:04.260Z,95989.63
2022-09-04T12:04:32.105Z,95995.41
2022-09-04T12:07:14.037Z,96000.03
2022-09-04T12:10:05.676Z,96000.66
2022-09-04T12:13:29.103Z,96000.41
2022-09-04T12:16:47.713Z,96001.31
2022-09-04T12:19:50.575Z,95989.81
2022-09-04T12:23:02.039Z,95990.94
2022-09-04T12:25:53.296Z,95986.81
2022-09-04T12:29:05.972Z,95986.81
2022-09-04T12:31:57.187Z,95998.47
2022-09-04T12:34:56.150Z,95956.56
2022-09-04T12:37:46.808Z,95953.66
2022-09-04T12:40:32.453Z,96006.00
2022-09-04T12:43:16.741Z,96005.22
2022-09-04T12:45:55.595Z,96009.91
2022-09-04T12:48:36.179Z,96005.22
2022-09-04T12:51:11.995Z,96004.09
2022-09-04T12:54:00.130Z,96006.50
2022-09-04T12:56:41.617Z,96017.13
2022-09-04T12:59:32.463Z,96022.28
2022-09-04T13:02:10.989Z,96020.69
2022-09-04T13:04:55.973Z,96023.75
2022-09-04T13:07:41.126Z,96025.22
2022-09-04T13:10:23.611Z,96018.81
2022-09-04T13:13:03.447Z,96035.28
2022-09-04T13:15:40.957Z,96035.13
2022-09-04T13:18:23.117Z,96031.94
2022-09-04T13:20:59.581Z,96030.19
2022-09-04T13:23:46.372Z,96030.84
2022-09-04T13:26:35.859Z,96036.34
2022-09-04T13:29:17.466Z,95997.53
2022-09-04T13:32:10.468Z,96035.56
2022-09-04T13:34:58.938Z,96033.50
2022-09-04T13:37:32.480Z,96032.56
2022-09-04T13:40:12.630Z,96034.44
2022-09-04T13:43:06.248Z,96041.31
2022-09-04T13:45:40.416Z,96030.66
2022-09-04T13:48:13.453Z,96030.66
2022-09-04T13:50:48.125Z,96034.56
2022-09-04T13:53:21.655Z,96038.44
2022-09-04T13:55:54.500Z,96035.59
2022-09-04T13:58:30.080Z,96022.63
2022-09-04T14:01:02.239Z,96044.44
2022-09-04T14:03:37.936Z,96042.03
2022-09-04T14:06:13.107Z,96028.25
2022-09-04T14:08:43.369Z,96046.25
2022-09-04T14:11:58.351Z,96042.72
2022-09-04T14:15:00.923Z,96042.25
2022-09-04T14:17:37.083Z,96049.97
2022-09-04T14:20:17.517Z,96047.22
2022-09-04T14:22:59.588Z,96044.50
2022-09-04T14:25:33.767Z,96055.00
2022-09-04T14:28:07.964Z,96050.31
2022-09-04T14:30:47.745Z,96044.84
2022-09-04T14:33:28.380Z,96053.38
2022-09-04T14:36:12.936Z,96054.03
2022-09-04T14:39:06.824Z,96054.38
2022-09-04T14:41:49.817Z,96055.34
2022-09-04T14:44:35.895Z,96057.63
2022-09-04T14:47:13.017Z,96053.28
2022-09-04T14:49:47.446Z,96058.28
2022-09-04T14:52:20.102Z,96031.63
2022-09-04T14:54:54.615Z,96051.19
2022-09-04T14:57:28.701Z,96049.13
2022-09-04T15:00:06.459Z,96049.47
2022-09-04T15:02:39.337Z,96054.78
2022-09-04T15:05:18.181Z,96049.97
2022-09-04T15:08:00.124Z,96057.38
2022-09-04T15:10:36.904Z,96052.56
2022-09-04T15:13:40.879Z,96056.75
2022-09-04T15:16:18.775Z,96063.22
2022-09-04T15:18:56.557Z,96059.66
2022-09-04T15:21:33.989Z,96050.97
2022-09-04T15:24:11.846Z,96064.19
2022-09-04T15:26:47.172Z,96058.69
2022-09-04T15:29:21.296Z,96060.16
2022-09-04T15:31:50.087Z,96067.13
2022-09-04T15:34:24.247Z,96061.50
2022-09-04T15:36:52.904Z,96070.97
2022-09-04T15:39:31.525Z,96067.13
2022-09-04T15:42:01.414Z,96067.13
2022-09-04T15:44:35.844Z,96067.56
2022-09-04T15:47:13.501Z,96062.59
2022-09-04T15:49:49.029Z,96072.91
2022-09-04T15:52:27.444Z,96072.25
2022-09-04T15:55:05.548Z,96079.31
2022-09-04T15:57:49.495Z,96071.59
2022-09-04T16:00:23.705Z,96081.72
2022-09-04T16:02:59.588Z,96080.63
2022-09-04T16:05:35.270Z,96074.81
2022-09-04T16:08:20.594Z,96084.97
2022-09-04T16:10:57.564Z,96082.53
2022-09-04T16:13:43.426Z,96079.00
2022-09-04T16:16:19.318Z,96057.66
2022-09-04T16:19:02.531Z,96083.34
2022-09-04T16:21:41.673Z,96076.44
2022-09-04T16:24:17.082Z,96073.34
2022-09-04T16:26:50.726Z,96071.06
2022-09-04T16:29:36.784Z,96055.66
2022-09-04T16:32:10.243Z,96055.66
2022-09-04T16:34:47.533Z,96081.53
2022-09-04T16:37:20.630Z,96088.63
2022-09-04T16:40:01.108Z,96059.66
2022-09-04T16:42:36.332Z,96026.38
2022-09-04T16:45:11.915Z,96060.47
2022-09-04T16:47:47.767Z,96082.50
2022-09-04T16:50:25.411Z,96078.47
2022-09-04T16:53:13.462Z,96089.44
2022-09-04T16:55:48.988Z,96085.28
2022-09-04T16:58:40.332Z,96088.31
2022-09-04T17:01:17.152Z,96087.72
2022-09-04T17:04:14.376Z,96090.25
2022-09-04T17:07:02.895Z,96090.44
2022-09-04T17:09:48.215Z,96084.00
2022-09-04T17:12:24.150Z,96081.66
2022-09-04T17:15:01.208Z,96086.66
2022-09-04T17:17:32.348Z,96087.16
2022-09-04T17:20:03.832Z,96078.63
2022-09-04T17:29:04.445Z,96083.16
2022-09-04T17:29:08.978Z,96061.28
2022-09-04T17:29:24.372Z,96087.22
2022-09-04T17:31:33.357Z,96040.69
2022-09-04T17:40:33.548Z,96087.72
2022-09-04T17:40:37.145Z,96091.19
2022-09-04T17:40:48.715Z,96085.75
2022-09-04T17:43:23.575Z,95883.59
2022-09-04T17:46:00.178Z,96089.00
2022-09-04T17:48:31.659Z,96070.97
2022-09-04T17:51:03.655Z,96092.31
2022-09-04T17:53:34.844Z,96050.16
2022-09-04T17:56:08.995Z,96098.78
2022-09-04T17:58:43.876Z,96100.38
2022-09-04T18:01:20.424Z,96092.91
2022-09-04T18:04:21.160Z,96096.78
2022-09-04T18:07:00.804Z,96103.97
2022-09-04T18:10:04.956Z,96076.38
2022-09-04T18:12:39.270Z,96116.63
2022-09-04T18:15:33.203Z,96099.69
2022-09-04T18:18:11.686Z,96127.84
2022-09-04T18:20:45.419Z,96125.56
2022-09-04T18:23:51.556Z,96125.19
2022-09-04T18:26:39.930Z,96134.44
2022-09-04T18:32:11.710Z,96130.25
2022-09-04T18:37:08.730Z,96110.16
2022-09-04T18:37:24.739Z,96139.50
2022-09-04T18:38:20.822Z,96138.81
2022-09-04T18:43:12.249Z,96144.38
2022-09-04T18:50:24.392Z,96133.50
2022-09-04T18:50:34.631Z,96152.16
2022-09-04T18:50:37.224Z,96155.50
2022-09-04T18:52:21.086Z,96153.06
2022-09-04T18:54:58.167Z,96158.53
2022-09-04T18:57:34.075Z,96156.41
2022-09-04T19:00:10.257Z,96154.94
2022-09-04T19:02:52.967Z,96171.91
2022-09-04T19:05:24.569Z,96160.84
2022-09-04T19:07:57.521Z,96160.03
2022-09-04T19:10:29.299Z,96141.28
2022-09-04T19:13:05.208Z,96160.63
2022-09-04T19:15:57.515Z,96169.94
2022-09-04T19:18:34.284Z,96163.50
2022-09-04T19:21:23.404Z,96170.34
2022-09-04T19:23:59.749Z,96163.09
2022-09-04T19:26:37.751Z,96162.91
2022-09-04T19:29:15.316Z,96156.97
2022-09-04T19:31:52.571Z,96168.78
2022-09-04T19:34:28.521Z,96170.19
2022-09-04T19:37:26.059Z,96173.22
2022-09-04T19:46:02.084Z,96163.25
2022-09-04T19:46:08.502Z,96185.34
2022-09-04T19:46:26.125Z,95925.41
2022-09-04T19:50:22.654Z,96135.31
2022-09-04T19:53:35.738Z,96172.03
2022-09-04T19:54:57.820Z,96175.50
2022-09-04T19:57:46.554Z,96170.66
2022-09-04T20:00:43.113Z,96177.81
2022-09-04T20:03:29.001Z,96183.84
2022-09-04T20:06:20.255Z,96184.47
2022-09-04T20:08:56.678Z,96181.25
2022-09-04T20:11:36.076Z,96176.41
2022-09-04T20:14:14.962Z,96152.50
2022-09-04T20:16:57.534Z,96130.88
2022-09-04T20:19:37.840Z,96173.69
2022-09-04T20:22:17.372Z,96118.56
2022-09-04T20:25:01.448Z,96185.47
2022-09-04T20:27:37.905Z,96183.34
2022-09-04T20:30:13.227Z,96183.66
2022-09-04T20:32:56.053Z,96148.44
2022-09-04T20:35:36.185Z,96185.16
2022-09-04T20:38:22.862Z,96183.03
2022-09-04T20:40:56.917Z,96184.75
2022-09-04T20:43:35.292Z,95960.19
2022-09-04T20:49:39.027Z,96184.53
2022-09-04T20:52:51.142Z,96182.50
2022-09-04T20:52:58.853Z,96144.63
2022-09-04T20:55:17.061Z,96186.00
2022-09-04T21:01:43.086Z,96169.38
2022-09-04T21:03:09.889Z,96177.44
2022-09-04T21:04:06.034Z,96183.50
2022-09-04T21:06:43.295Z,96186.31
2022-09-04T21:09:24.159Z,96181.47
2022-09-04T21:11:57.160Z,96175.00
2022-09-04T21:14:44.919Z,96174.50
2022-09-04T21:17:35.616Z,96180.53
2022-09-04T21:20:35.295Z,96180.59
2022-09-04T21:23:33.613Z,96183.41
2022-09-04T21:26:15.322Z,96191.66
2022-09-04T21:29:15.230Z,96193.88
2022-09-04T21:32:16.989Z,96178.91
2022-09-04T21:35:08.293Z,96194.53
2022-09-04T21:37:47.294Z,96190.22
2022-09-04T21:40:51.727Z,96136.25
2022-09-04T21:43:49.581Z,96202.78
2022-09-04T21:46:50.494Z,96208.53
2022-09-04T21:49:55.586Z,96205.28
2022-09-04T21:52:44.696Z,96208.91
2022-09-04T21:57:28.818Z,96184.75
2022-09-04T22:02:42.420Z,96203.56
2022-09-04T22:02:45.249Z,96216.66
2022-09-04T22:04:50.775Z,96190.19
2022-09-04T22:11:15.432Z,96196.44
2022-09-04T22:13:33.918Z,96189.19
2022-09-04T22:13:49.333Z,96215.19
2022-09-04T22:16:42.143Z,96153.72
2022-09-04T22:19:43.461Z,96211.16
2022-09-04T22:22:32.593Z,96202.78
2022-09-04T22:25:32.573Z,96197.78
2022-09-04T22:28:30.460Z,96181.38
2022-09-04T22:31:29.831Z,96203.56
2022-09-04T22:34:29.628Z,96217.38
2022-09-04T22:37:29.086Z,96215.03
2022-09-04T22:40:19.149Z,96213.41
2022-09-04T22:42:52.800Z,96211.25
2022-09-04T22:45:54.388Z,96203.94
2022-09-04T22:49:12.345Z,96211.25
2022-09-04T22:52:01.599Z,96196.44
2022-09-04T22:54:44.707Z,96213.53
2022-09-04T22:57:20.844Z,96210.09
2022-09-04T23:00:11.544Z,96215.53
2022-09-04T23:03:09.330Z,96209.84
2022-09-04T23:06:18.883Z,96213.72
2022-09-04T23:13:49.526Z,96175.19
2022-09-04T23:13:52.403Z,96189.19
2022-09-04T23:15:19.831Z,96210.28
2022-09-04T23:18:12.864Z,96178.69
2022-09-04T23:26:31.450Z,96198.31
2022-09-04T23:26:44.300Z,96210.91
2022-09-04T23:27:28.849Z,96202.00
2022-09-04T23:30:08.581Z,96183.78
2022-09-04T23:33:27.998Z,96206.97
2022-09-04T23:36:33.137Z,96215.09
2022-09-04T23:39:30.468Z,96203.72
2022-09-04T23:42:16.846Z,96211.91
2022-09-04T23:45:06.625Z,96214.94
2022-09-04T23:47:54.468Z,96097.13
2022-09-04T23:50:32.796Z,96171.88
2022-09-04T23:53:13.680Z,96085.63
2022-09-04T23:55:58.201Z,96190.75
2022-09-04T23:58:58.073Z,96170.88
